sensor_id;sensor_type;location;lat;lon;timestamp;P1;durP1;ratioP1;P2;durP2;ratioP2
5195;SDS011;2617;51.006;12.436;2023-08-07T00:01:28;1.00;;;1.00;;
5195;SDS011;2617;51.006;12.436;2023-08-07T00:06:30;1.67;;;1.57;;
5195;SDS011;2617;51.006;12.436;2023-08-07T00:11:32;6.00;;;1.20;;
5195;SDS011;2617;51.006;12.436;2023-08-07T00:16:34;1.63;;;1.53;;
5195;SDS011;2617;51.006;12.436;2023-08-07T00:21:36;1.48;;;1.48;;
5195;SDS011;2617;51.006;12.436;2023-08-07T00:26:38;3.90;;;1.57;;
5195;SDS011;2617;51.006;12.436;2023-08-07T00:31:40;1.20;;;1.10;;
5195;SDS011;2617;51.006;12.436;2023-08-07T00:36:42;1.80;;;1.20;;
5195;SDS011;2617;51.006;12.436;2023-08-07T00:41:44;1.47;;;1.37;;
5195;SDS011;2617;51.006;12.436;2023-08-07T00:46:46;1.12;;;1.10;;
5195;SDS011;2617;51.006;12.436;2023-08-07T00:51:48;4.63;;;1.50;;
5195;SDS011;2617;51.006;12.436;2023-08-07T00:56:50;1.60;;;1.20;;
5195;SDS011;2617;51.006;12.436;2023-08-07T01:01:51;2.20;;;1.80;;
5195;SDS011;2617;51.006;12.436;2023-08-07T01:06:53;1.83;;;1.73;;
5195;SDS011;2617;51.006;12.436;2023-08-07T01:17:14;1.33;;;1.33;;
5195;SDS011;2617;51.006;12.436;2023-08-07T01:22:16;1.37;;;1.27;;
5195;SDS011;2617;51.006;12.436;2023-08-07T01:27:24;4.93;;;1.33;;
5195;SDS011;2617;51.006;12.436;2023-08-07T01:32:28;1.50;;;1.40;;
5195;SDS011;2617;51.006;12.436;2023-08-07T01:37:29;1.47;;;1.47;;
5195;SDS011;2617;51.006;12.436;2023-08-07T01:42:29;1.73;;;1.60;;
5195;SDS011;2617;51.006;12.436;2023-08-07T01:47:31;2.10;;;1.90;;
5195;SDS011;2617;51.006;12.436;2023-08-07T01:52:33;4.40;;;1.60;;
5195;SDS011;2617;51.006;12.436;2023-08-07T01:57:35;1.90;;;1.80;;
5195;SDS011;2617;51.006;12.436;2023-08-07T02:02:37;3.80;;;1.40;;
5195;SDS011;2617;51.006;12.436;2023-08-07T02:07:38;1.53;;;1.37;;
5195;SDS011;2617;51.006;12.436;2023-08-07T02:12:40;1.60;;;1.50;;
5195;SDS011;2617;51.006;12.436;2023-08-07T02:17:42;1.83;;;1.50;;
5195;SDS011;2617;51.006;12.436;2023-08-07T02:22:44;1.80;;;1.70;;
5195;SDS011;2617;51.006;12.436;2023-08-07T02:27:47;7.10;;;1.80;;
5195;SDS011;2617;51.006;12.436;2023-08-07T02:32:48;2.50;;;1.80;;
5195;SDS011;2617;51.006;12.436;2023-08-07T02:37:51;1.67;;;1.57;;
5195;SDS011;2617;51.006;12.436;2023-08-07T02:42:53;2.63;;;1.97;;
5195;SDS011;2617;51.006;12.436;2023-08-07T02:47:56;2.80;;;2.60;;
5195;SDS011;2617;51.006;12.436;2023-08-07T02:52:58;1.83;;;1.73;;
5195;SDS011;2617;51.006;12.436;2023-08-07T02:57:59;1.80;;;1.70;;
5195;SDS011;2617;51.006;12.436;2023-08-07T03:03:01;1.80;;;1.70;;
5195;SDS011;2617;51.006;12.436;2023-08-07T03:08:03;11.50;;;2.10;;
5195;SDS011;2617;51.006;12.436;2023-08-07T03:13:05;6.60;;;1.93;;
5195;SDS011;2617;51.006;12.436;2023-08-07T03:18:07;2.43;;;2.00;;
5195;SDS011;2617;51.006;12.436;2023-08-07T03:23:10;2.40;;;2.30;;
5195;SDS011;2617;51.006;12.436;2023-08-07T03:28:12;8.30;;;2.67;;
5195;SDS011;2617;51.006;12.436;2023-08-07T03:33:14;2.33;;;2.10;;
5195;SDS011;2617;51.006;12.436;2023-08-07T03:38:16;2.05;;;1.95;;
5195;SDS011;2617;51.006;12.436;2023-08-07T03:43:17;2.80;;;2.60;;
5195;SDS011;2617;51.006;12.436;2023-08-07T03:48:19;1.80;;;1.70;;
5195;SDS011;2617;51.006;12.436;2023-08-07T03:53:21;3.43;;;1.83;;
5195;SDS011;2617;51.006;12.436;2023-08-07T03:58:23;4.40;;;2.70;;
5195;SDS011;2617;51.006;12.436;2023-08-07T04:03:25;5.95;;;1.80;;
5195;SDS011;2617;51.006;12.436;2023-08-07T04:08:27;2.37;;;1.70;;
5195;SDS011;2617;51.006;12.436;2023-08-07T04:13:29;1.50;;;1.50;;
5195;SDS011;2617;51.006;12.436;2023-08-07T04:18:31;2.57;;;1.60;;
5195;SDS011;2617;51.006;12.436;2023-08-07T04:23:32;2.03;;;1.43;;
5195;SDS011;2617;51.006;12.436;2023-08-07T04:28:34;2.37;;;1.60;;
5195;SDS011;2617;51.006;12.436;2023-08-07T04:33:37;1.23;;;1.20;;
5195;SDS011;2617;51.006;12.436;2023-08-07T04:38:38;1.57;;;1.47;;
5195;SDS011;2617;51.006;12.436;2023-08-07T04:43:41;2.13;;;1.53;;
5195;SDS011;2617;51.006;12.436;2023-08-07T04:48:44;1.20;;;1.10;;
5195;SDS011;2617;51.006;12.436;2023-08-07T04:53:46;1.70;;;1.40;;
5195;SDS011;2617;51.006;12.436;2023-08-07T04:58:48;1.10;;;1.00;;
5195;SDS011;2617;51.006;12.436;2023-08-07T05:03:49;2.10;;;1.20;;
5195;SDS011;2617;51.006;12.436;2023-08-07T05:08:51;2.65;;;1.20;;
5195;SDS011;2617;51.006;12.436;2023-08-07T05:13:53;1.27;;;1.00;;
5195;SDS011;2617;51.006;12.436;2023-08-07T05:18:55;1.70;;;1.00;;
5195;SDS011;2617;51.006;12.436;2023-08-07T05:23:56;1.03;;;0.93;;
5195;SDS011;2617;51.006;12.436;2023-08-07T05:28:58;0.77;;;0.77;;
5195;SDS011;2617;51.006;12.436;2023-08-07T05:34:00;1.25;;;0.80;;
5195;SDS011;2617;51.006;12.436;2023-08-07T05:39:02;1.00;;;1.00;;
5195;SDS011;2617;51.006;12.436;2023-08-07T05:44:03;0.87;;;0.87;;
5195;SDS011;2617;51.006;12.436;2023-08-07T05:49:05;0.70;;;0.70;;
5195;SDS011;2617;51.006;12.436;2023-08-07T05:54:07;2.53;;;1.00;;
5195;SDS011;2617;51.006;12.436;2023-08-07T05:59:10;4.43;;;0.80;;
5195;SDS011;2617;51.006;12.436;2023-08-07T06:04:11;0.80;;;0.80;;
5195;SDS011;2617;51.006;12.436;2023-08-07T06:09:13;0.80;;;0.80;;
5195;SDS011;2617;51.006;12.436;2023-08-07T06:14:16;0.68;;;0.68;;
5195;SDS011;2617;51.006;12.436;2023-08-07T06:19:18;0.70;;;0.70;;
5195;SDS011;2617;51.006;12.436;2023-08-07T06:24:20;0.80;;;0.80;;
5195;SDS011;2617;51.006;12.436;2023-08-07T06:29:21;10.60;;;1.07;;
5195;SDS011;2617;51.006;12.436;2023-08-07T06:34:24;2.00;;;0.90;;
5195;SDS011;2617;51.006;12.436;2023-08-07T06:39:26;1.43;;;0.80;;
5195;SDS011;2617;51.006;12.436;2023-08-07T06:44:29;2.80;;;0.80;;
5195;SDS011;2617;51.006;12.436;2023-08-07T06:49:31;1.13;;;0.80;;
5195;SDS011;2617;51.006;12.436;2023-08-07T06:54:33;1.63;;;1.00;;
5195;SDS011;2617;51.006;12.436;2023-08-07T06:59:35;0.97;;;0.93;;
5195;SDS011;2617;51.006;12.436;2023-08-07T07:04:38;1.03;;;0.80;;
5195;SDS011;2617;51.006;12.436;2023-08-07T07:09:40;1.20;;;1.00;;
5195;SDS011;2617;51.006;12.436;2023-08-07T07:14:43;2.60;;;1.10;;
5195;SDS011;2617;51.006;12.436;2023-08-07T07:19:46;0.80;;;0.80;;
5195;SDS011;2617;51.006;12.436;2023-08-07T07:24:47;1.30;;;0.80;;
5195;SDS011;2617;51.006;12.436;2023-08-07T07:29:49;4.07;;;0.90;;
5195;SDS011;2617;51.006;12.436;2023-08-07T07:34:52;1.40;;;0.87;;
5195;SDS011;2617;51.006;12.436;2023-08-07T07:39:53;3.20;;;0.80;;
5195;SDS011;2617;51.006;12.436;2023-08-07T07:44:55;0.83;;;0.83;;
5195;SDS011;2617;51.006;12.436;2023-08-07T07:50:06;0.70;;;0.70;;
5195;SDS011;2617;51.006;12.436;2023-08-07T07:55:07;1.03;;;0.70;;
5195;SDS011;2617;51.006;12.436;2023-08-07T08:00:09;1.73;;;0.87;;
5195;SDS011;2617;51.006;12.436;2023-08-07T08:05:12;0.80;;;0.80;;
5195;SDS011;2617;51.006;12.436;2023-08-07T08:10:15;1.58;;;0.75;;
5195;SDS011;2617;51.006;12.436;2023-08-07T08:15:16;0.53;;;0.53;;
5195;SDS011;2617;51.006;12.436;2023-08-07T08:20:19;0.90;;;0.90;;
5195;SDS011;2617;51.006;12.436;2023-08-07T08:25:21;0.50;;;0.50;;
5195;SDS011;2617;51.006;12.436;2023-08-07T08:30:23;3.63;;;0.87;;
5195;SDS011;2617;51.006;12.436;2023-08-07T08:35:25;0.80;;;0.70;;
5195;SDS011;2617;51.006;12.436;2023-08-07T08:40:26;0.70;;;0.70;;
5195;SDS011;2617;51.006;12.436;2023-08-07T08:45:29;1.33;;;0.90;;
5195;SDS011;2617;51.006;12.436;2023-08-07T08:50:32;0.87;;;0.87;;
5195;SDS011;2617;51.006;12.436;2023-08-07T08:55:33;0.90;;;0.90;;
5195;SDS011;2617;51.006;12.436;2023-08-07T09:00:35;1.00;;;0.87;;
5195;SDS011;2617;51.006;12.436;2023-08-07T09:05:37;1.90;;;1.10;;
5195;SDS011;2617;51.006;12.436;2023-08-07T09:10:38;1.10;;;1.00;;
5195;SDS011;2617;51.006;12.436;2023-08-07T09:15:41;1.37;;;1.27;;
5195;SDS011;2617;51.006;12.436;2023-08-07T09:20:43;1.00;;;0.90;;
5195;SDS011;2617;51.006;12.436;2023-08-07T09:25:45;1.83;;;1.30;;
5195;SDS011;2617;51.006;12.436;2023-08-07T09:30:47;0.83;;;0.83;;
5195;SDS011;2617;51.006;12.436;2023-08-07T09:35:49;2.10;;;0.97;;
5195;SDS011;2617;51.006;12.436;2023-08-07T09:40:51;0.87;;;0.87;;
5195;SDS011;2617;51.006;12.436;2023-08-07T09:45:53;2.25;;;0.60;;
5195;SDS011;2617;51.006;12.436;2023-08-07T09:50:58;1.37;;;0.93;;
5195;SDS011;2617;51.006;12.436;2023-08-07T09:55:58;1.10;;;0.87;;
5195;SDS011;2617;51.006;12.436;2023-08-07T10:01:00;0.50;;;0.50;;
5195;SDS011;2617;51.006;12.436;2023-08-07T10:06:02;1.13;;;0.60;;
5195;SDS011;2617;51.006;12.436;2023-08-07T10:11:04;0.70;;;0.60;;
5195;SDS011;2617;51.006;12.436;2023-08-07T10:16:06;1.10;;;0.67;;
5195;SDS011;2617;51.006;12.436;2023-08-07T10:21:08;0.90;;;0.80;;
5195;SDS011;2617;51.006;12.436;2023-08-07T10:26:10;4.53;;;0.80;;
5195;SDS011;2617;51.006;12.436;2023-08-07T10:31:13;1.73;;;0.90;;
5195;SDS011;2617;51.006;12.436;2023-08-07T10:36:15;0.50;;;0.50;;
5195;SDS011;2617;51.006;12.436;2023-08-07T10:41:17;0.80;;;0.80;;
5195;SDS011;2617;51.006;12.436;2023-08-07T10:46:20;0.60;;;0.60;;
5195;SDS011;2617;51.006;12.436;2023-08-07T10:51:23;0.60;;;0.60;;
5195;SDS011;2617;51.006;12.436;2023-08-07T10:56:30;1.63;;;0.60;;
5195;SDS011;2617;51.006;12.436;2023-08-07T11:06:55;0.90;;;0.70;;
5195;SDS011;2617;51.006;12.436;2023-08-07T11:11:58;1.15;;;0.55;;
5195;SDS011;2617;51.006;12.436;2023-08-07T11:17:00;0.50;;;0.50;;
5195;SDS011;2617;51.006;12.436;2023-08-07T11:22:02;0.50;;;0.50;;
5195;SDS011;2617;51.006;12.436;2023-08-07T11:27:04;0.50;;;0.50;;
5195;SDS011;2617;51.006;12.436;2023-08-07T11:32:08;2.33;;;0.40;;
5195;SDS011;2617;51.006;12.436;2023-08-07T11:37:14;0.83;;;0.77;;
5195;SDS011;2617;51.006;12.436;2023-08-07T11:42:11;0.40;;;0.40;;
5195;SDS011;2617;51.006;12.436;2023-08-07T11:47:14;0.50;;;0.50;;
5195;SDS011;2617;51.006;12.436;2023-08-07T11:52:15;0.60;;;0.50;;
5195;SDS011;2617;51.006;12.436;2023-08-07T11:57:20;0.73;;;0.60;;
5195;SDS011;2617;51.006;12.436;2023-08-07T12:02:23;0.50;;;0.50;;
5195;SDS011;2617;51.006;12.436;2023-08-07T12:07:25;3.47;;;0.50;;
5195;SDS011;2617;51.006;12.436;2023-08-07T12:12:27;1.17;;;0.40;;
5195;SDS011;2617;51.006;12.436;2023-08-07T12:17:30;1.95;;;0.52;;
5195;SDS011;2617;51.006;12.436;2023-08-07T12:22:30;0.60;;;0.40;;
5195;SDS011;2617;51.006;12.436;2023-08-07T12:27:32;0.43;;;0.43;;
5195;SDS011;2617;51.006;12.436;2023-08-07T12:32:34;0.50;;;0.50;;
5195;SDS011;2617;51.006;12.436;2023-08-07T12:37:36;0.50;;;0.50;;
5195;SDS011;2617;51.006;12.436;2023-08-07T12:42:38;0.70;;;0.50;;
5195;SDS011;2617;51.006;12.436;2023-08-07T12:47:39;0.50;;;0.50;;
5195;SDS011;2617;51.006;12.436;2023-08-07T12:52:41;0.80;;;0.80;;
5195;SDS011;2617;51.006;12.436;2023-08-07T12:57:43;0.50;;;0.50;;
5195;SDS011;2617;51.006;12.436;2023-08-07T13:02:45;0.50;;;0.50;;
5195;SDS011;2617;51.006;12.436;2023-08-07T13:07:47;1.93;;;0.57;;
5195;SDS011;2617;51.006;12.436;2023-08-07T13:12:50;3.00;;;0.47;;
5195;SDS011;2617;51.006;12.436;2023-08-07T13:17:52;2.50;;;0.50;;
5195;SDS011;2617;51.006;12.436;2023-08-07T13:22:54;0.40;;;0.40;;
5195;SDS011;2617;51.006;12.436;2023-08-07T13:27:57;1.03;;;0.60;;
5195;SDS011;2617;51.006;12.436;2023-08-07T13:32:58;1.93;;;0.60;;
5195;SDS011;2617;51.006;12.436;2023-08-07T13:38:02;0.60;;;0.60;;
5195;SDS011;2617;51.006;12.436;2023-08-07T13:43:06;0.50;;;0.50;;
5195;SDS011;2617;51.006;12.436;2023-08-07T13:48:09;0.60;;;0.60;;
5195;SDS011;2617;51.006;12.436;2023-08-07T13:53:12;0.77;;;0.63;;
5195;SDS011;2617;51.006;12.436;2023-08-07T13:58:14;1.17;;;0.70;;
5195;SDS011;2617;51.006;12.436;2023-08-07T14:03:16;0.97;;;0.50;;
5195;SDS011;2617;51.006;12.436;2023-08-07T14:08:19;0.82;;;0.68;;
5195;SDS011;2617;51.006;12.436;2023-08-07T14:13:21;2.55;;;1.52;;
5195;SDS011;2617;51.006;12.436;2023-08-07T14:18:23;0.80;;;0.80;;
5195;SDS011;2617;51.006;12.436;2023-08-07T14:23:25;0.83;;;0.83;;
5195;SDS011;2617;51.006;12.436;2023-08-07T14:28:27;0.70;;;0.70;;
5195;SDS011;2617;51.006;12.436;2023-08-07T14:33:28;0.85;;;0.85;;
5195;SDS011;2617;51.006;12.436;2023-08-07T14:38:30;2.45;;;0.93;;
5195;SDS011;2617;51.006;12.436;2023-08-07T14:43:32;3.50;;;0.90;;
5195;SDS011;2617;51.006;12.436;2023-08-07T14:48:34;2.78;;;1.10;;
5195;SDS011;2617;51.006;12.436;2023-08-07T14:53:35;0.93;;;0.80;;
5195;SDS011;2617;51.006;12.436;2023-08-07T14:58:38;1.17;;;0.80;;
5195;SDS011;2617;51.006;12.436;2023-08-07T15:03:40;1.00;;;0.90;;
5195;SDS011;2617;51.006;12.436;2023-08-07T15:08:41;1.27;;;0.70;;
5195;SDS011;2617;51.006;12.436;2023-08-07T15:13:43;1.43;;;0.70;;
5195;SDS011;2617;51.006;12.436;2023-08-07T15:18:45;2.13;;;1.20;;
5195;SDS011;2617;51.006;12.436;2023-08-07T15:23:48;0.90;;;0.70;;
5195;SDS011;2617;51.006;12.436;2023-08-07T15:28:50;4.45;;;0.88;;
5195;SDS011;2617;51.006;12.436;2023-08-07T15:33:52;2.53;;;0.93;;
5195;SDS011;2617;51.006;12.436;2023-08-07T15:38:54;5.27;;;1.27;;
5195;SDS011;2617;51.006;12.436;2023-08-07T15:43:56;1.37;;;0.90;;
5195;SDS011;2617;51.006;12.436;2023-08-07T15:48:58;1.90;;;1.10;;
5195;SDS011;2617;51.006;12.436;2023-08-07T15:53:59;2.40;;;1.47;;
5195;SDS011;2617;51.006;12.436;2023-08-07T15:59:01;4.00;;;1.40;;
5195;SDS011;2617;51.006;12.436;2023-08-07T16:04:03;4.83;;;2.13;;
5195;SDS011;2617;51.006;12.436;2023-08-07T16:09:05;3.57;;;1.60;;
5195;SDS011;2617;51.006;12.436;2023-08-07T16:14:07;3.73;;;1.97;;
5195;SDS011;2617;51.006;12.436;2023-08-07T16:19:08;2.53;;;1.40;;
5195;SDS011;2617;51.006;12.436;2023-08-07T16:24:10;5.80;;;1.93;;
5195;SDS011;2617;51.006;12.436;2023-08-07T16:29:12;4.00;;;1.57;;
5195;SDS011;2617;51.006;12.436;2023-08-07T16:34:14;3.83;;;2.63;;
5195;SDS011;2617;51.006;12.436;2023-08-07T16:39:16;1.70;;;1.60;;
5195;SDS011;2617;51.006;12.436;2023-08-07T16:44:18;5.77;;;1.80;;
5195;SDS011;2617;51.006;12.436;2023-08-07T16:49:20;1.73;;;1.50;;
5195;SDS011;2617;51.006;12.436;2023-08-07T16:54:23;7.27;;;2.20;;
5195;SDS011;2617;51.006;12.436;2023-08-07T16:59:24;3.33;;;1.90;;
5195;SDS011;2617;51.006;12.436;2023-08-07T17:04:26;6.05;;;1.73;;
5195;SDS011;2617;51.006;12.436;2023-08-07T17:09:28;2.47;;;1.50;;
5195;SDS011;2617;51.006;12.436;2023-08-07T17:14:30;6.43;;;2.40;;
5195;SDS011;2617;51.006;12.436;2023-08-07T17:19:31;5.30;;;2.40;;
5195;SDS011;2617;51.006;12.436;2023-08-07T17:24:33;2.67;;;1.60;;
5195;SDS011;2617;51.006;12.436;2023-08-07T17:29:35;7.28;;;2.37;;
5195;SDS011;2617;51.006;12.436;2023-08-07T17:34:38;3.00;;;1.77;;
5195;SDS011;2617;51.006;12.436;2023-08-07T17:39:40;2.97;;;1.70;;
5195;SDS011;2617;51.006;12.436;2023-08-07T17:44:42;2.60;;;2.10;;
5195;SDS011;2617;51.006;12.436;2023-08-07T17:49:44;2.20;;;1.70;;
5195;SDS011;2617;51.006;12.436;2023-08-07T17:54:45;5.30;;;1.87;;
5195;SDS011;2617;51.006;12.436;2023-08-07T17:59:48;3.97;;;1.50;;
5195;SDS011;2617;51.006;12.436;2023-08-07T18:04:51;2.50;;;1.40;;
5195;SDS011;2617;51.006;12.436;2023-08-07T18:09:53;6.12;;;2.00;;
5195;SDS011;2617;51.006;12.436;2023-08-07T18:14:55;5.60;;;1.53;;
5195;SDS011;2617;51.006;12.436;2023-08-07T18:19:57;2.70;;;1.40;;
5195;SDS011;2617;51.006;12.436;2023-08-07T18:24:59;4.53;;;1.63;;
5195;SDS011;2617;51.006;12.436;2023-08-07T18:30:01;2.50;;;1.40;;
5195;SDS011;2617;51.006;12.436;2023-08-07T18:35:03;3.30;;;1.95;;
5195;SDS011;2617;51.006;12.436;2023-08-07T18:40:05;3.90;;;1.80;;
5195;SDS011;2617;51.006;12.436;2023-08-07T18:45:08;2.63;;;1.50;;
5195;SDS011;2617;51.006;12.436;2023-08-07T18:50:10;4.10;;;1.60;;
5195;SDS011;2617;51.006;12.436;2023-08-07T18:55:12;25.07;;;1.83;;
5195;SDS011;2617;51.006;12.436;2023-08-07T19:00:14;9.63;;;2.17;;
5195;SDS011;2617;51.006;12.436;2023-08-07T19:05:16;3.43;;;1.67;;
5195;SDS011;2617;51.006;12.436;2023-08-07T19:10:18;4.30;;;1.73;;
5195;SDS011;2617;51.006;12.436;2023-08-07T19:15:20;12.53;;;1.80;;
5195;SDS011;2617;51.006;12.436;2023-08-07T19:20:22;4.43;;;1.57;;
5195;SDS011;2617;51.006;12.436;2023-08-07T19:25:25;2.50;;;1.30;;
5195;SDS011;2617;51.006;12.436;2023-08-07T19:30:26;2.07;;;1.43;;
5195;SDS011;2617;51.006;12.436;2023-08-07T19:35:28;2.70;;;1.40;;
5195;SDS011;2617;51.006;12.436;2023-08-07T19:40:30;2.80;;;1.40;;
5195;SDS011;2617;51.006;12.436;2023-08-07T19:45:33;5.50;;;1.40;;
5195;SDS011;2617;51.006;12.436;2023-08-07T19:50:34;4.50;;;1.30;;
5195;SDS011;2617;51.006;12.436;2023-08-07T19:55:37;3.63;;;1.77;;
5195;SDS011;2617;51.006;12.436;2023-08-07T20:00:39;2.63;;;1.13;;
5195;SDS011;2617;51.006;12.436;2023-08-07T20:05:40;3.90;;;1.40;;
5195;SDS011;2617;51.006;12.436;2023-08-07T20:10:42;1.60;;;1.50;;
5195;SDS011;2617;51.006;12.436;2023-08-07T20:15:45;2.27;;;1.50;;
5195;SDS011;2617;51.006;12.436;2023-08-07T20:20:47;3.00;;;1.80;;
5195;SDS011;2617;51.006;12.436;2023-08-07T20:25:49;1.83;;;1.63;;
5195;SDS011;2617;51.006;12.436;2023-08-07T20:30:51;2.27;;;1.87;;
5195;SDS011;2617;51.006;12.436;2023-08-07T20:35:53;3.23;;;1.50;;
5195;SDS011;2617;51.006;12.436;2023-08-07T20:40:55;3.80;;;1.50;;
5195;SDS011;2617;51.006;12.436;2023-08-07T20:45:57;4.93;;;1.53;;
5195;SDS011;2617;51.006;12.436;2023-08-07T20:50:59;2.95;;;1.08;;
5195;SDS011;2617;51.006;12.436;2023-08-07T20:56:02;1.87;;;1.33;;
5195;SDS011;2617;51.006;12.436;2023-08-07T21:01:04;3.63;;;1.50;;
5195;SDS011;2617;51.006;12.436;2023-08-07T21:06:06;2.80;;;1.87;;
5195;SDS011;2617;51.006;12.436;2023-08-07T21:11:08;5.57;;;1.57;;
5195;SDS011;2617;51.006;12.436;2023-08-07T21:16:10;2.20;;;1.50;;
5195;SDS011;2617;51.006;12.436;2023-08-07T21:21:12;5.30;;;1.50;;
5195;SDS011;2617;51.006;12.436;2023-08-07T21:26:14;2.00;;;1.37;;
5195;SDS011;2617;51.006;12.436;2023-08-07T21:31:16;2.47;;;1.40;;
5195;SDS011;2617;51.006;12.436;2023-08-07T21:36:18;4.90;;;1.80;;
5195;SDS011;2617;51.006;12.436;2023-08-07T21:41:21;4.80;;;1.47;;
5195;SDS011;2617;51.006;12.436;2023-08-07T21:46:23;2.60;;;1.53;;
5195;SDS011;2617;51.006;12.436;2023-08-07T21:51:26;5.53;;;1.83;;
5195;SDS011;2617;51.006;12.436;2023-08-07T21:56:28;2.70;;;1.70;;
5195;SDS011;2617;51.006;12.436;2023-08-07T22:01:31;2.45;;;1.83;;
5195;SDS011;2617;51.006;12.436;2023-08-07T22:06:33;4.53;;;2.10;;
5195;SDS011;2617;51.006;12.436;2023-08-07T22:11:35;3.03;;;1.70;;
5195;SDS011;2617;51.006;12.436;2023-08-07T22:16:37;4.37;;;1.90;;
5195;SDS011;2617;51.006;12.436;2023-08-07T22:21:39;2.80;;;1.90;;
5195;SDS011;2617;51.006;12.436;2023-08-07T22:26:41;5.10;;;2.20;;
5195;SDS011;2617;51.006;12.436;2023-08-07T22:31:43;1.73;;;1.62;;
5195;SDS011;2617;51.006;12.436;2023-08-07T22:36:45;3.60;;;2.00;;
5195;SDS011;2617;51.006;12.436;2023-08-07T22:41:46;4.77;;;1.70;;
5195;SDS011;2617;51.006;12.436;2023-08-07T22:46:48;3.57;;;2.00;;
5195;SDS011;2617;51.006;12.436;2023-08-07T22:51:50;2.10;;;1.87;;
5195;SDS011;2617;51.006;12.436;2023-08-07T22:56:52;2.10;;;1.90;;
5195;SDS011;2617;51.006;12.436;2023-08-07T23:01:55;2.93;;;1.70;;
5195;SDS011;2617;51.006;12.436;2023-08-07T23:06:58;2.80;;;2.00;;
5195;SDS011;2617;51.006;12.436;2023-08-07T23:12:00;2.57;;;1.90;;
5195;SDS011;2617;51.006;12.436;2023-08-07T23:17:03;3.00;;;2.47;;
5195;SDS011;2617;51.006;12.436;2023-08-07T23:22:05;2.13;;;1.90;;
5195;SDS011;2617;51.006;12.436;2023-08-07T23:27:06;1.80;;;1.70;;
5195;SDS011;2617;51.006;12.436;2023-08-07T23:32:08;2.97;;;1.92;;
5195;SDS011;2617;51.006;12.436;2023-08-07T23:37:10;6.20;;;2.03;;
5195;SDS011;2617;51.006;12.436;2023-08-07T23:42:12;3.83;;;2.23;;
5195;SDS011;2617;51.006;12.436;2023-08-07T23:47:14;3.40;;;2.10;;
5195;SDS011;2617;51.006;12.436;2023-08-07T23:52:15;1.70;;;1.60;;
5195;SDS011;2617;51.006;12.436;2023-08-07T23:57:18;4.97;;;1.90;;
